createdAt,value
2018-02-23T00:00:56.306Z,78.97
2018-02-23T00:01:56.307Z,78.97
2018-02-23T00:02:56.273Z,79.35
2018-02-23T00:03:56.259Z,79.53
2018-02-23T00:04:56.246Z,79.53
2018-02-23T00:05:56.219Z,79.16
2018-02-23T00:06:56.200Z,80
2018-02-23T00:07:56.201Z,80.1
2018-02-23T00:08:56.164Z,79.72
2018-02-23T00:09:56.154Z,79.82
2018-02-23T00:10:56.128Z,80.19
2018-02-23T00:11:56.117Z,80
2018-02-23T00:12:56.100Z,80.1
2018-02-23T00:13:56.075Z,80.29
2018-02-23T00:14:56.073Z,81.04
2018-02-23T00:15:56.040Z,80.48
2018-02-23T00:16:56.022Z,80.38
2018-02-23T00:17:56.023Z,80.38
2018-02-23T00:18:55.985Z,80.57
2018-02-23T00:19:55.976Z,80.57
2018-02-23T00:20:55.951Z,80.29
2018-02-23T00:21:55.936Z,80.76
2018-02-23T00:22:55.924Z,80.76
2018-02-23T00:23:55.909Z,80.29
2018-02-23T00:24:55.901Z,80.48
2018-02-23T00:25:55.869Z,80.48
2018-02-23T00:26:55.851Z,80.48
2018-02-23T00:27:55.834Z,81.04
2018-02-23T00:28:55.810Z,80.66
2018-02-23T00:29:55.540Z,80.57
2018-02-23T00:30:55.776Z,80.57
2018-02-23T00:31:55.763Z,80.85
2018-02-23T00:32:56.034Z,80.76
2018-02-23T00:33:55.725Z,80.76
2018-02-23T00:34:55.708Z,80.38
2018-02-23T00:35:55.678Z,80.95
2018-02-23T00:36:55.665Z,81.14
2018-02-23T00:37:55.654Z,81.33
2018-02-23T00:38:55.634Z,81.14
2018-02-23T00:39:55.609Z,80.76
2018-02-23T00:40:55.591Z,81.04
2018-02-23T00:41:55.580Z,81.14
2018-02-23T00:42:55.561Z,81.9
2018-02-23T00:43:55.280Z,81.8
2018-02-23T00:44:55.528Z,81.71
2018-02-23T00:45:55.513Z,82.09
2018-02-23T00:46:55.498Z,82.09
2018-02-23T00:47:55.463Z,82.09
2018-02-23T00:48:55.463Z,82.09
2018-02-23T00:49:55.431Z,81.8
2018-02-23T00:50:55.408Z,82.56
2018-02-23T00:51:55.399Z,82.37
2018-02-23T00:52:55.373Z,82.56
2018-02-23T00:53:55.354Z,82.84
2018-02-23T00:54:55.341Z,82.75
2018-02-23T00:55:55.322Z,82.65
2018-02-23T00:56:55.303Z,82.75
2018-02-23T00:57:55.286Z,82.65
2018-02-23T00:58:55.279Z,82.65
2018-02-23T00:59:55.255Z,82.65
2018-02-23T01:00:55.229Z,82.84
2018-02-23T01:01:55.216Z,82.46
2018-02-23T01:02:54.942Z,82.28
2018-02-23T01:03:55.188Z,82.84
2018-02-23T01:04:55.156Z,82.84
2018-02-23T01:05:55.144Z,82.56
2018-02-23T01:06:55.118Z,82.56
2018-02-23T01:07:54.844Z,81.9
2018-02-23T01:08:55.082Z,82.28
2018-02-23T01:09:55.079Z,82.09
2018-02-23T01:10:55.047Z,82.23
2018-02-23T01:11:55.029Z,81.76
2018-02-23T01:12:55.008Z,82.14
2018-02-23T01:13:54.998Z,81.57
2018-02-23T01:14:54.988Z,81.29
2018-02-23T01:15:54.963Z,81.38
2018-02-23T01:16:54.937Z,81.48
2018-02-23T01:17:54.666Z,81.57
2018-02-23T01:18:54.909Z,81.38
2018-02-23T01:19:54.893Z,81.38
2018-02-23T01:20:54.872Z,81.38
2018-02-23T01:21:54.849Z,81.85
2018-02-23T01:22:54.838Z,81.76
2018-02-23T01:23:54.814Z,81.57
2018-02-23T01:24:55.039Z,81.67
2018-02-23T01:25:54.773Z,81.76
2018-02-23T01:26:54.755Z,81.85
2018-02-23T01:27:54.731Z,81.76
2018-02-23T01:28:54.727Z,81.57
2018-02-23T01:29:54.696Z,81.76
2018-02-23T01:30:54.679Z,81.76
2018-02-23T01:31:54.659Z,81.76
2018-02-23T01:32:54.703Z,81.67
2018-02-23T01:33:54.365Z,81.76
2018-02-23T01:34:54.606Z,81.38
2018-02-23T01:35:54.327Z,81.48
2018-02-23T01:36:54.571Z,81.38
2018-02-23T01:37:54.554Z,81.57
2018-02-23T01:38:54.543Z,82.04
2018-02-23T01:39:54.523Z,82.51
2018-02-23T01:40:54.493Z,82.42
2018-02-23T01:41:54.494Z,82.32
2018-02-23T01:42:54.458Z,82.42
2018-02-23T01:43:54.442Z,82.61
2018-02-23T01:44:54.432Z,82.51
2018-02-23T01:45:54.409Z,82.51
2018-02-23T01:46:54.391Z,82.42
2018-02-23T01:47:54.106Z,82.61
2018-02-23T01:48:54.344Z,82.61
2018-02-23T01:49:54.327Z,82.42
2018-02-23T01:50:54.312Z,82.51
2018-02-23T01:51:54.303Z,82.51
2018-02-23T01:52:54.276Z,82.32
2018-02-23T01:53:54.260Z,82.42
2018-02-23T01:54:54.256Z,82.7
2018-02-23T01:55:54.215Z,82.8
2018-02-23T01:56:54.204Z,83.27
2018-02-23T01:57:54.190Z,83.17
2018-02-23T01:58:54.164Z,83.46
2018-02-23T01:59:54.151Z,83.65
2018-02-23T02:00:54.136Z,84.03
2018-02-23T02:01:54.107Z,83.84
2018-02-23T02:02:54.096Z,84.12
2018-02-23T02:03:54.077Z,84.22
2018-02-23T02:04:54.058Z,83.65
2018-02-23T02:05:54.043Z,84.12
2018-02-23T02:06:54.013Z,83.74
2018-02-23T02:07:54.005Z,84.59
2018-02-23T02:08:54.043Z,84.59
2018-02-23T02:09:53.958Z,84.31
2018-02-23T02:10:53.936Z,84.41
2018-02-23T02:11:53.922Z,84.5
2018-02-23T02:12:53.900Z,84.22
2018-02-23T02:13:53.880Z,84.22
2018-02-23T02:14:53.863Z,84.41
2018-02-23T02:15:53.591Z,84.31
2018-02-23T02:16:53.833Z,84.5
2018-02-23T02:17:53.807Z,84.59
2018-02-23T02:18:53.789Z,84.59
2018-02-23T02:19:53.775Z,84.12
2018-02-23T02:20:53.753Z,84.59
2018-02-23T02:21:53.733Z,84.59
2018-02-23T02:22:53.721Z,84.69
2018-02-23T02:23:53.705Z,84.69
2018-02-23T02:24:53.686Z,84.31
2018-02-23T02:25:53.661Z,84.59
2018-02-23T02:26:53.639Z,85.16
2018-02-23T02:27:53.618Z,85.06
2018-02-23T02:28:53.611Z,84.97
2018-02-23T02:29:53.582Z,85.25
2018-02-23T02:30:53.570Z,85.16
2018-02-23T02:31:53.553Z,85.35
2018-02-23T02:32:53.529Z,85.25
2018-02-23T02:33:53.523Z,85.44
2018-02-23T02:34:53.497Z,85.72
2018-02-23T02:35:53.477Z,85.63
2018-02-23T02:36:53.451Z,85.72
2018-02-23T02:37:53.438Z,85.63
2018-02-23T02:38:53.426Z,85.53
2018-02-23T02:39:53.397Z,85.63
2018-02-23T02:40:53.382Z,85.82
2018-02-23T02:41:53.359Z,86.01
2018-02-23T02:42:53.646Z,86.01
2018-02-23T02:43:53.319Z,85.72
2018-02-23T02:44:53.310Z,86.38
2018-02-23T02:45:53.307Z,86.01
2018-02-23T02:46:53.264Z,86.29
2018-02-23T02:47:53.246Z,86.1
2018-02-23T02:48:53.228Z,85.91
2018-02-23T02:49:53.212Z,86.25
2018-02-23T02:50:53.186Z,86.15
2018-02-23T02:51:53.171Z,86.44
2018-02-23T02:52:53.158Z,86.19
2018-02-23T02:53:53.132Z,86.82
2018-02-23T02:54:53.127Z,86.86
2018-02-23T02:55:53.099Z,87
2018-02-23T02:56:53.075Z,86.63
2018-02-23T02:57:53.064Z,86.63
2018-02-23T02:58:53.054Z,86.95
2018-02-23T02:59:53.018Z,87.29
2018-02-23T03:00:52.743Z,87.1
2018-02-23T03:01:52.992Z,87
2018-02-23T03:02:52.962Z,87
2018-02-23T03:03:52.951Z,87
2018-02-23T03:04:52.923Z,87.1
2018-02-23T03:05:52.912Z,87.29
2018-02-23T03:06:52.891Z,87.19
2018-02-23T03:07:52.877Z,87.66
2018-02-23T03:08:52.860Z,87.1
2018-02-23T03:09:52.825Z,87.29
2018-02-23T03:10:52.815Z,87.19
2018-02-23T03:11:52.805Z,87.38
2018-02-23T03:12:52.778Z,87.85
2018-02-23T03:13:52.756Z,87.66
2018-02-23T03:14:52.734Z,87.66
2018-02-23T03:15:52.728Z,87.38
2018-02-23T03:16:52.709Z,87.76
2018-02-23T03:17:52.684Z,88.04
2018-02-23T03:18:52.658Z,87.85
2018-02-23T03:19:52.642Z,87.95
2018-02-23T03:20:52.624Z,87.85
2018-02-23T03:21:52.611Z,87.85
2018-02-23T03:22:52.581Z,87.85
2018-02-23T03:23:52.571Z,88.42
2018-02-23T03:24:52.545Z,88.23
2018-02-23T03:25:52.535Z,88.23
2018-02-23T03:26:52.588Z,87.85
2018-02-23T03:27:52.499Z,88.7
2018-02-23T03:28:52.478Z,88.79
2018-02-23T03:29:52.700Z,88.23
2018-02-23T03:30:52.445Z,88.7
2018-02-23T03:31:52.413Z,88.98
2018-02-23T03:32:52.407Z,88.98
2018-02-23T03:33:52.373Z,89.27
2018-02-23T03:34:52.356Z,88.32
2018-02-23T03:35:52.389Z,89.08
2018-02-23T03:36:52.327Z,89.27
2018-02-23T03:37:52.311Z,89.27
2018-02-23T03:38:52.288Z,89.64
2018-02-23T03:39:52.268Z,89.17
2018-02-23T03:40:52.246Z,88.98
2018-02-23T03:41:52.221Z,89.27
2018-02-23T03:42:52.205Z,89.64
2018-02-23T03:43:52.184Z,89.83
2018-02-23T03:44:52.164Z,89.45
2018-02-23T03:45:52.154Z,89.36
2018-02-23T03:46:52.127Z,89.64
2018-02-23T03:47:51.854Z,89.64
2018-02-23T03:48:52.092Z,89.83
2018-02-23T03:49:52.078Z,89.64
2018-02-23T03:50:52.053Z,89.93
2018-02-23T03:51:52.037Z,90.02
2018-02-23T03:52:52.021Z,90.4
2018-02-23T03:53:51.994Z,90.4
2018-02-23T03:54:51.977Z,90.4
2018-02-23T03:55:51.953Z,90.21
2018-02-23T03:56:51.938Z,90.21
2018-02-23T03:57:51.932Z,90.21
2018-02-23T03:58:51.899Z,90.5
2018-02-23T03:59:51.894Z,90.31
2018-02-23T04:00:52.116Z,90.12
2018-02-23T04:01:51.841Z,90.5
2018-02-23T04:02:51.840Z,90.59
2018-02-23T04:03:51.551Z,90.68
2018-02-23T04:04:51.789Z,90.31
2018-02-23T04:05:51.770Z,90.21
2018-02-23T04:06:51.747Z,90.97
2018-02-23T04:07:51.742Z,90.68
2018-02-23T04:08:51.709Z,90.78
2018-02-23T04:09:51.690Z,90.87
2018-02-23T04:10:51.672Z,91.35
2018-02-23T04:11:51.654Z,91.44
2018-02-23T04:12:51.636Z,91.44
2018-02-23T04:13:51.629Z,91.06
2018-02-23T04:14:51.593Z,91.16
2018-02-23T04:15:51.581Z,91.44
2018-02-23T04:16:51.554Z,91.35
2018-02-23T04:17:51.536Z,91.25
2018-02-23T04:18:51.262Z,90.97
2018-02-23T04:19:51.512Z,91.82
2018-02-23T04:20:51.478Z,91.82
2018-02-23T04:21:51.474Z,91.63
2018-02-23T04:22:51.463Z,91.44
2018-02-23T04:23:51.422Z,91.53
2018-02-23T04:24:51.150Z,91.44
2018-02-23T04:25:51.388Z,91.63
2018-02-23T04:26:51.375Z,91.44
2018-02-23T04:27:51.093Z,92.1
2018-02-23T04:28:51.327Z,92.66
2018-02-23T04:29:51.315Z,92.57
2018-02-23T04:30:51.299Z,92.38
2018-02-23T04:31:51.279Z,92.47
2018-02-23T04:32:51.251Z,92.38
2018-02-23T04:33:51.231Z,92.57
2018-02-23T04:34:51.214Z,92.95
2018-02-23T04:35:51.198Z,92.66
2018-02-23T04:36:51.171Z,92.76
2018-02-23T04:37:51.154Z,92.57
2018-02-23T04:38:51.140Z,92.76
2018-02-23T04:39:51.118Z,93.42
2018-02-23T04:40:51.096Z,93.51
2018-02-23T04:41:51.077Z,93.13
2018-02-23T04:42:51.064Z,93.61
2018-02-23T04:43:51.042Z,93.8
2018-02-23T04:44:51.022Z,93.7
2018-02-23T04:45:51.000Z,93.51
2018-02-23T04:46:50.984Z,93.8
2018-02-23T04:47:50.961Z,93.89
2018-02-23T04:48:50.944Z,93.7
2018-02-23T04:49:50.930Z,94.65
2018-02-23T04:50:50.908Z,94.55
2018-02-23T04:51:50.884Z,94.65
2018-02-23T04:52:50.873Z,93.89
2018-02-23T04:53:50.854Z,94.46
2018-02-23T04:54:50.846Z,94.46
2018-02-23T04:55:50.808Z,94.27
2018-02-23T04:56:50.799Z,94.18
2018-02-23T04:57:50.770Z,94.55
2018-02-23T04:58:50.751Z,94.84
2018-02-23T04:59:50.738Z,95.12
2018-02-23T05:00:50.452Z,94.74
2018-02-23T05:01:50.701Z,94.93
2018-02-23T05:02:50.672Z,95.12
2018-02-23T05:03:50.662Z,95.03
2018-02-23T05:04:50.695Z,94.93
2018-02-23T05:05:50.627Z,95.12
2018-02-23T05:06:50.609Z,95.03
2018-02-23T05:07:50.576Z,95.12
2018-02-23T05:08:50.559Z,95.31
2018-02-23T05:09:50.538Z,95.12
2018-02-23T05:10:50.628Z,95.21
2018-02-23T05:11:50.498Z,95.59
2018-02-23T05:12:50.496Z,95.68
2018-02-23T05:13:50.462Z,96.06
2018-02-23T05:14:50.452Z,95.78
2018-02-23T05:15:50.421Z,96.15
2018-02-23T05:16:50.414Z,95.97
2018-02-23T05:17:50.388Z,96.15
2018-02-23T05:18:50.363Z,95.87
2018-02-23T05:19:50.348Z,96.06
2018-02-23T05:20:50.328Z,96.25
2018-02-23T05:21:50.303Z,96.01
2018-02-23T05:22:50.291Z,96.15
2018-02-23T05:23:50.268Z,95.78
2018-02-23T05:24:50.248Z,96.81
2018-02-23T05:25:50.224Z,96.86
2018-02-23T05:26:50.216Z,96.77
2018-02-23T05:27:50.188Z,96.77
2018-02-23T05:28:50.167Z,97.05
2018-02-23T05:29:50.221Z,97.24
2018-02-23T05:30:50.135Z,96.95
2018-02-23T05:31:49.861Z,96.95
2018-02-23T05:32:50.116Z,96.86
2018-02-23T05:33:50.081Z,97.43
2018-02-23T05:34:50.062Z,97.43
2018-02-23T05:35:49.779Z,97.33
2018-02-23T05:36:50.015Z,97.33
2018-02-23T05:37:49.990Z,97.61
2018-02-23T05:38:49.975Z,97.43
2018-02-23T05:39:49.959Z,97.8
2018-02-23T05:40:49.932Z,97.52
2018-02-23T05:41:49.913Z,97.9
2018-02-23T05:42:49.897Z,98.37
2018-02-23T05:43:49.879Z,98.65
2018-02-23T05:44:49.863Z,98.37
2018-02-23T05:45:49.845Z,98.47
2018-02-23T05:46:49.825Z,98.37
2018-02-23T05:47:49.801Z,99.03
2018-02-23T05:48:49.783Z,98.75
2018-02-23T05:49:49.755Z,99.03
2018-02-23T05:50:49.822Z,98.84
2018-02-23T05:51:49.723Z,99.41
2018-02-23T05:52:49.699Z,98.94
2018-02-23T05:53:49.677Z,98.84
2018-02-23T05:54:49.673Z,98.84
2018-02-23T05:55:49.388Z,98.84
2018-02-23T05:56:49.631Z,99.6
2018-02-23T05:57:49.602Z,99.6
2018-02-23T05:58:49.323Z,99.6
2018-02-23T05:59:49.575Z,99.32
2018-02-23T06:00:49.548Z,99.79
2018-02-23T06:01:49.518Z,99.69
2018-02-23T06:02:49.509Z,99.99
2018-02-23T06:03:49.487Z,99.98
2018-02-23T06:04:49.470Z,99.98
2018-02-23T06:05:49.701Z,99.99
2018-02-23T06:06:49.434Z,99.69
2018-02-23T06:07:49.146Z,99.99
2018-02-23T06:08:49.392Z,99.79
2018-02-23T06:09:49.366Z,99.99
2018-02-23T06:10:49.342Z,99.99
2018-02-23T06:11:49.321Z,99.99
2018-02-23T06:12:49.302Z,99.99
2018-02-23T06:13:49.293Z,99.99
2018-02-23T06:14:49.262Z,99.99
2018-02-23T06:15:49.250Z,99.99
2018-02-23T06:16:48.966Z,99.99
2018-02-23T06:17:49.220Z,99.99
2018-02-23T06:18:49.181Z,99.99
2018-02-23T06:19:49.162Z,99.99
2018-02-23T06:20:49.143Z,99.99
2018-02-23T06:21:49.132Z,99.99
2018-02-23T06:22:48.847Z,99.99
2018-02-23T06:23:49.091Z,99.99
2018-02-23T06:24:49.062Z,99.99
2018-02-23T06:25:49.045Z,99.99
2018-02-23T06:26:49.030Z,99.99
2018-02-23T06:27:49.016Z,99.99
2018-02-23T06:28:48.982Z,99.99
2018-02-23T06:29:48.975Z,99.99
2018-02-23T06:30:48.687Z,99.99
2018-02-23T06:31:48.928Z,99.99
2018-02-23T06:32:48.908Z,99.99
2018-02-23T06:33:48.892Z,99.99
2018-02-23T06:34:48.875Z,99.99
2018-02-23T06:35:48.845Z,99.99
2018-02-23T06:36:49.084Z,99.99
2018-02-23T06:37:48.808Z,99.99
2018-02-23T06:38:48.794Z,99.99
2018-02-23T06:39:48.764Z,99.99
2018-02-23T06:40:48.745Z,99.99
2018-02-23T06:41:48.735Z,99.99
2018-02-23T06:42:48.710Z,99.99
2018-02-23T06:43:48.691Z,99.99
2018-02-23T06:44:48.667Z,99.98
2018-02-23T06:45:48.647Z,99.79
2018-02-23T06:46:48.636Z,99.88
2018-02-23T06:47:48.611Z,99.79
2018-02-23T06:48:48.588Z,99.51
2018-02-23T06:49:48.571Z,99.51
2018-02-23T06:50:48.553Z,99.41
2018-02-23T06:51:48.539Z,98.94
2018-02-23T06:52:48.515Z,98.75
2018-02-23T06:53:48.518Z,98.42
2018-02-23T06:54:48.487Z,98.14
2018-02-23T06:55:48.456Z,98.42
2018-02-23T06:56:48.437Z,97.95
2018-02-23T06:57:48.420Z,98.14
2018-02-23T06:58:48.409Z,97.95
2018-02-23T06:59:48.384Z,97.95
2018-02-23T07:00:48.360Z,97.57
2018-02-23T07:01:48.350Z,97.19
2018-02-23T07:02:48.323Z,96.53
2018-02-23T07:03:48.393Z,95.59
2018-02-23T07:04:48.290Z,94.74
2018-02-23T07:05:48.320Z,94.65
2018-02-23T07:06:48.264Z,94.27
2018-02-23T07:07:48.245Z,94.46
2018-02-23T07:08:48.218Z,94.65
2018-02-23T07:09:48.255Z,94.36
2018-02-23T07:10:48.208Z,94.36
2018-02-23T07:11:48.175Z,94.74
2018-02-23T07:12:48.142Z,94.27
2018-02-23T07:13:48.125Z,93.56
2018-02-23T07:14:48.111Z,92.99
2018-02-23T07:15:48.102Z,92.9
2018-02-23T07:16:48.079Z,92.9
2018-02-23T07:17:48.073Z,92.52
2018-02-23T07:18:48.039Z,92.71
2018-02-23T07:19:48.029Z,92.8
2018-02-23T07:20:48.014Z,92.52
2018-02-23T07:21:47.998Z,92.8
2018-02-23T07:22:47.972Z,92.43
2018-02-23T07:23:47.958Z,92.24
2018-02-23T07:24:47.938Z,91.3
2018-02-23T07:25:47.920Z,91.58
2018-02-23T07:26:47.912Z,90.92
2018-02-23T07:27:47.885Z,90.54
2018-02-23T07:28:47.864Z,90.73
2018-02-23T07:29:47.849Z,90.54
2018-02-23T07:30:47.845Z,90.26
2018-02-23T07:31:47.871Z,90.26
2018-02-23T07:32:47.800Z,90.07
2018-02-23T07:33:47.780Z,90.07
2018-02-23T07:34:47.510Z,89.31
2018-02-23T07:35:47.757Z,89.59
2018-02-23T07:36:47.735Z,89.5
2018-02-23T07:37:47.725Z,89.69
2018-02-23T07:38:47.706Z,89.88
2018-02-23T07:39:47.680Z,90.07
2018-02-23T07:40:47.675Z,90.16
2018-02-23T07:41:47.660Z,89.88
2018-02-23T07:42:47.643Z,89.97
2018-02-23T07:43:47.616Z,89.03
2018-02-23T07:44:47.364Z,89.12
2018-02-23T07:45:47.588Z,89.12
2018-02-23T07:46:47.567Z,88.75
2018-02-23T07:47:47.296Z,89.03
2018-02-23T07:48:47.552Z,89.12
2018-02-23T07:49:47.266Z,89.5
2018-02-23T07:50:47.513Z,89.31
2018-02-23T07:51:47.498Z,88.84
2018-02-23T07:52:47.466Z,88.75
2018-02-23T07:53:47.458Z,88.09
2018-02-23T07:54:47.201Z,88.09
2018-02-23T07:55:47.177Z,87.8
2018-02-23T07:56:47.410Z,87.8
2018-02-23T07:57:47.389Z,88.28
2018-02-23T07:58:47.376Z,87.99
2018-02-23T07:59:47.358Z,87.94
2018-02-23T08:00:47.349Z,87.62
2018-02-23T08:01:47.345Z,87.33
2018-02-23T08:02:47.317Z,87.62
2018-02-23T08:03:47.286Z,87.33
2018-02-23T08:04:47.017Z,87.43
2018-02-23T08:05:47.260Z,87.24
2018-02-23T08:06:47.013Z,88.09
2018-02-23T08:07:47.240Z,87.8
2018-02-23T08:08:47.422Z,87.8
2018-02-23T08:09:46.948Z,87.9
2018-02-23T08:10:47.187Z,88.46
2018-02-23T08:11:47.166Z,88.09
2018-02-23T08:12:47.148Z,88.28
2018-02-23T08:13:47.164Z,88.23
2018-02-23T08:14:47.130Z,87.56
2018-02-23T08:15:46.840Z,87.18
2018-02-23T08:16:47.081Z,87.18
2018-02-23T08:17:47.077Z,87.18
2018-02-23T08:18:47.034Z,87.47
2018-02-23T08:19:46.782Z,87.56
2018-02-23T08:20:46.754Z,87.47
2018-02-23T08:21:46.981Z,87.28
2018-02-23T08:22:46.980Z,87.18
2018-02-23T08:23:46.951Z,87.28
2018-02-23T08:24:46.931Z,86.24
2018-02-23T08:25:46.922Z,86.33
2018-02-23T08:26:46.905Z,86.24
2018-02-23T08:27:46.917Z,85.96
2018-02-23T08:28:46.865Z,85.39
2018-02-23T08:29:46.857Z,85.68
2018-02-23T08:30:46.827Z,85.68
2018-02-23T08:31:46.811Z,85.58
2018-02-23T08:32:46.800Z,86.05
2018-02-23T08:33:46.775Z,86.43
2018-02-23T08:34:46.759Z,86.33
2018-02-23T08:35:46.740Z,85.86
2018-02-23T08:36:46.724Z,85.39
2018-02-23T08:37:46.718Z,85.77
2018-02-23T08:38:46.687Z,85.49
2018-02-23T08:39:46.431Z,85.01
2018-02-23T08:40:46.653Z,85.2
2018-02-23T08:41:46.895Z,85.2
2018-02-23T08:42:46.626Z,85.49
2018-02-23T08:43:46.349Z,85.68
2018-02-23T08:44:46.587Z,85.2
2018-02-23T08:45:46.575Z,84.73
2018-02-23T08:46:46.563Z,84.92
2018-02-23T08:47:46.538Z,84.54
2018-02-23T08:48:46.519Z,84.64
2018-02-23T08:49:46.508Z,84.82
2018-02-23T08:50:46.488Z,84.16
2018-02-23T08:51:46.477Z,83.88
2018-02-23T08:52:46.455Z,84.45
2018-02-23T08:53:46.433Z,84.73
2018-02-23T08:54:46.419Z,84.64
2018-02-23T08:55:46.413Z,84.16
2018-02-23T08:56:46.392Z,83.97
2018-02-23T08:57:46.361Z,84.07
2018-02-23T08:58:46.355Z,83.97
2018-02-23T08:59:46.387Z,83.97
2018-02-23T09:00:46.323Z,83.97
2018-02-23T09:01:46.039Z,84.35
2018-02-23T09:02:46.034Z,84.35
2018-02-23T09:03:46.269Z,84.64
2018-02-23T09:04:46.247Z,84.82
2018-02-23T09:05:45.986Z,83.97
2018-02-23T09:06:46.220Z,84.07
2018-02-23T09:07:46.202Z,83.78
2018-02-23T09:08:46.219Z,82.65
2018-02-23T09:09:46.169Z,82.56
2018-02-23T09:10:46.138Z,82.18
2018-02-23T09:11:46.138Z,82.09
2018-02-23T09:12:46.111Z,82.65
2018-02-23T09:13:46.110Z,82.65
2018-02-23T09:14:46.097Z,81.8
2018-02-23T09:15:46.053Z,81.71
2018-02-23T09:16:45.786Z,82.18
2018-02-23T09:17:46.016Z,82.37
2018-02-23T09:18:46.022Z,82.56
2018-02-23T09:19:45.992Z,82.56
2018-02-23T09:20:45.986Z,82.75
2018-02-23T09:21:45.954Z,83.31
2018-02-23T09:22:45.927Z,82.56
2018-02-23T09:23:45.651Z,82.75
2018-02-23T09:24:45.892Z,81.9
2018-02-23T09:25:45.881Z,81.04
2018-02-23T09:26:45.857Z,80.29
2018-02-23T09:27:45.837Z,79.82
2018-02-23T09:28:45.828Z,79.16
2018-02-23T09:29:45.812Z,79.63
2018-02-23T09:30:45.805Z,79.53
2018-02-23T09:31:45.778Z,79.35
2018-02-23T09:32:45.764Z,79.53
2018-02-23T09:33:45.745Z,79.53
2018-02-23T09:34:45.725Z,79.35
2018-02-23T09:35:45.444Z,79.82
2018-02-23T09:36:45.680Z,79.44
2018-02-23T09:37:45.671Z,79.72
2018-02-23T09:38:45.647Z,78.87
2018-02-23T09:39:45.644Z,78.87
2018-02-23T09:40:45.623Z,78.87
2018-02-23T09:41:45.605Z,78.5
2018-02-23T09:42:45.586Z,78.59
2018-02-23T09:43:45.570Z,78.59
2018-02-23T09:44:45.312Z,78.4
2018-02-23T09:45:45.564Z,79.16
2018-02-23T09:46:45.260Z,79.35
2018-02-23T09:47:45.491Z,79.44
2018-02-23T09:48:45.473Z,79.63
2018-02-23T09:49:45.453Z,79.44
2018-02-23T09:50:45.442Z,79.25
2018-02-23T09:51:45.428Z,78.02
2018-02-23T09:52:45.405Z,76.7
2018-02-23T09:53:45.391Z,76.79
2018-02-23T09:54:45.372Z,76.51
2018-02-23T09:55:45.364Z,76.23
2018-02-23T09:56:45.383Z,76.42
2018-02-23T09:57:45.327Z,75.95
2018-02-23T09:58:45.307Z,75.66
2018-02-23T09:59:45.304Z,75.38
2018-02-23T10:00:45.306Z,75.28
2018-02-23T10:01:45.267Z,75.28
2018-02-23T10:02:45.259Z,74.81
2018-02-23T10:03:44.986Z,75.47
2018-02-23T10:04:44.955Z,75.57
2018-02-23T10:05:45.222Z,75.85
2018-02-23T10:06:45.234Z,75.76
2018-02-23T10:07:45.155Z,75.19
2018-02-23T10:08:45.135Z,74.62
2018-02-23T10:09:45.114Z,74.9
2018-02-23T10:10:45.110Z,74.43
2018-02-23T10:11:45.085Z,74.53
2018-02-23T10:12:45.069Z,74.9
2018-02-23T10:13:45.041Z,74.62
2018-02-23T10:14:44.768Z,74.24
2018-02-23T10:15:45.015Z,73.86
2018-02-23T10:16:45.013Z,73.96
2018-02-23T10:17:45.220Z,73.68
2018-02-23T10:18:44.959Z,73.86
2018-02-23T10:19:44.700Z,73.77
2018-02-23T10:20:45.075Z,73.68
2018-02-23T10:21:44.899Z,73.02
2018-02-23T10:22:44.635Z,72.64
2018-02-23T10:23:44.875Z,73.02
2018-02-23T10:24:44.890Z,71.79
2018-02-23T10:25:44.838Z,70.94
2018-02-23T10:26:44.809Z,70.65
2018-02-23T10:27:44.801Z,70.56
2018-02-23T10:28:44.779Z,70.56
2018-02-23T10:29:44.816Z,70.37
2018-02-23T10:30:44.752Z,70.47
2018-02-23T10:31:44.469Z,71.31
2018-02-23T10:32:44.847Z,71.31
2018-02-23T10:33:44.693Z,71.88
2018-02-23T10:34:44.674Z,70.94
2018-02-23T10:35:44.664Z,71.12
2018-02-23T10:36:44.636Z,70.65
2018-02-23T10:37:44.621Z,70.37
2018-02-23T10:38:44.345Z,70.56
2018-02-23T10:39:44.591Z,70.37
2018-02-23T10:40:44.330Z,70.18
2018-02-23T10:41:44.569Z,70.56
2018-02-23T10:42:44.541Z,70.47
2018-02-23T10:43:44.526Z,69.52
2018-02-23T10:44:44.506Z,69.33
2018-02-23T10:45:44.494Z,69.14
2018-02-23T10:46:44.466Z,69.24
2018-02-23T10:47:44.451Z,69.14
2018-02-23T10:48:44.171Z,69.14
2018-02-23T10:49:44.420Z,69.37
2018-02-23T10:50:44.397Z,69.27
2018-02-23T10:51:44.446Z,69.33
2018-02-23T10:52:44.367Z,69.18
2018-02-23T10:53:44.347Z,69.74
2018-02-23T10:54:44.326Z,69.09
2018-02-23T10:55:44.314Z,68.9
2018-02-23T10:56:44.301Z,69.27
2018-02-23T10:57:44.323Z,69.09
2018-02-23T10:58:44.259Z,67.95
2018-02-23T10:59:44.273Z,67.76
2018-02-23T11:00:44.239Z,67.57
2018-02-23T11:01:44.207Z,67.76
2018-02-23T11:02:44.188Z,66.91
2018-02-23T11:03:44.177Z,67
2018-02-23T11:04:44.161Z,66.82
2018-02-23T11:05:44.157Z,66.44
2018-02-23T11:06:44.124Z,66.31
2018-02-23T11:07:44.103Z,66.03
2018-02-23T11:08:44.092Z,66.78
2018-02-23T11:09:44.066Z,66.78
2018-02-23T11:10:44.068Z,66.31
2018-02-23T11:11:43.776Z,66.06
2018-02-23T11:12:44.024Z,66.16
2018-02-23T11:13:43.998Z,66.16
2018-02-23T11:14:43.996Z,66.25
2018-02-23T11:15:43.971Z,66.25
2018-02-23T11:16:43.947Z,66.44
2018-02-23T11:17:43.926Z,66.25
2018-02-23T11:18:43.919Z,66.35
2018-02-23T11:19:43.908Z,65.97
2018-02-23T11:20:43.877Z,65.59
2018-02-23T11:21:43.609Z,65.78
2018-02-23T11:22:43.852Z,66.63
2018-02-23T11:23:43.828Z,66.82
2018-02-23T11:24:43.809Z,67.57
2018-02-23T11:25:43.795Z,67.1
2018-02-23T11:26:43.527Z,67
2018-02-23T11:27:43.763Z,67.19
2018-02-23T11:28:43.740Z,66.53
2018-02-23T11:29:43.732Z,66.16
2018-02-23T11:30:43.709Z,65.49
2018-02-23T11:31:43.701Z,65.68
2018-02-23T11:32:43.689Z,66.44
2018-02-23T11:33:43.402Z,66.06
2018-02-23T11:34:43.674Z,65.68
2018-02-23T11:35:43.630Z,65.3
2018-02-23T11:36:43.608Z,65.11
2018-02-23T11:37:43.586Z,65.68
2018-02-23T11:38:43.585Z,65.78
2018-02-23T11:39:43.560Z,65.87
2018-02-23T11:40:43.534Z,66.25
2018-02-23T11:41:43.544Z,66.53
2018-02-23T11:42:43.510Z,67.29
2018-02-23T11:43:43.497Z,67.29
2018-02-23T11:44:43.485Z,67.19
2018-02-23T11:45:43.452Z,67
2018-02-23T11:46:43.180Z,67
2018-02-23T11:47:43.416Z,66.82
2018-02-23T11:48:43.404Z,66.25
2018-02-23T11:49:43.123Z,66.25
2018-02-23T11:50:43.362Z,66.25
2018-02-23T11:51:43.364Z,66.06
2018-02-23T11:52:43.344Z,65.4
2018-02-23T11:53:43.058Z,65.11
2018-02-23T11:54:43.297Z,65.02
2018-02-23T11:55:43.305Z,65.68
2018-02-23T11:56:43.279Z,65.3
2018-02-23T11:57:43.257Z,65.21
2018-02-23T11:58:43.233Z,65.49
2018-02-23T11:59:43.215Z,65.3
2018-02-23T12:00:43.204Z,65.68
2018-02-23T12:01:43.187Z,65.78
2018-02-23T12:02:43.174Z,66
2018-02-23T12:03:43.146Z,66
2018-02-23T12:04:43.134Z,65.72
2018-02-23T12:05:43.118Z,65.91
2018-02-23T12:06:42.843Z,65.34
2018-02-23T12:07:43.088Z,64.39
2018-02-23T12:08:43.084Z,64.2
2018-02-23T12:09:42.792Z,64.96
2018-02-23T12:10:43.032Z,65.53
2018-02-23T12:11:43.016Z,65.43
2018-02-23T12:12:43.010Z,65.53
2018-02-23T12:13:42.728Z,66.19
2018-02-23T12:14:42.967Z,66.19
2018-02-23T12:15:42.951Z,66.63
2018-02-23T12:16:42.684Z,67.57
2018-02-23T12:17:42.920Z,67.6
2018-02-23T12:18:42.897Z,67.13
2018-02-23T12:19:43.132Z,66.28
2018-02-23T12:20:42.868Z,66
2018-02-23T12:21:42.860Z,65.34
2018-02-23T12:22:42.578Z,64.77
2018-02-23T12:23:42.826Z,63.82
2018-02-23T12:24:43.099Z,64.29
2018-02-23T12:25:42.780Z,64.48
2018-02-23T12:26:42.777Z,64.96
2018-02-23T12:27:42.753Z,65.15
2018-02-23T12:28:42.736Z,63.82
2018-02-23T12:29:42.714Z,63.82
2018-02-23T12:30:42.722Z,63.07
2018-02-23T12:31:42.423Z,63.45
2018-02-23T12:32:42.673Z,63.92
2018-02-23T12:33:42.681Z,63.45
2018-02-23T12:34:42.633Z,63.07
2018-02-23T12:35:42.361Z,62.78
2018-02-23T12:36:42.345Z,62.4
2018-02-23T12:37:42.584Z,62.02
2018-02-23T12:38:42.569Z,62.21
2018-02-23T12:39:42.565Z,61.36
2018-02-23T12:40:42.534Z,61.83
2018-02-23T12:41:42.519Z,61.27
2018-02-23T12:42:42.504Z,59.57
2018-02-23T12:43:42.483Z,58.44
2018-02-23T12:44:42.539Z,56.73
2018-02-23T12:45:42.464Z,56.45
2018-02-23T12:46:42.440Z,56.07
2018-02-23T12:47:42.163Z,55.98
2018-02-23T12:48:42.402Z,57.58
2018-02-23T12:49:42.135Z,58.44
2018-02-23T12:50:42.622Z,58.53
2018-02-23T12:51:42.394Z,58.53
2018-02-23T12:52:42.340Z,57.96
2018-02-23T12:53:42.323Z,57.96
2018-02-23T12:54:42.306Z,57.33
2018-02-23T12:55:42.291Z,56.76